createdAt,value
2022-10-24T00:00:34.194Z,100032.88
2022-10-24T00:03:01.913Z,100031.53
2022-10-24T00:05:29.754Z,100026.81
2022-10-24T00:07:57.323Z,100026.47
2022-10-24T00:10:25.055Z,100027.16
2022-10-24T00:12:54.186Z,100031.28
2022-10-24T00:15:23.215Z,100034.81
2022-10-24T00:17:50.803Z,100033.44
2022-10-24T00:20:18.466Z,100033.28
2022-10-24T00:22:46.250Z,100033.75
2022-10-24T00:25:14.043Z,100020.22
2022-10-24T00:27:41.633Z,100027.22
2022-10-24T00:30:10.278Z,100028.72
2022-10-24T00:32:39.234Z,100027.72
2022-10-24T00:35:07.673Z,100030.38
2022-10-24T00:37:36.126Z,100033.72
2022-10-24T00:40:05.271Z,100014.66
2022-10-24T00:42:32.829Z,100011.78
2022-10-24T00:45:00.779Z,100007.91
2022-10-24T00:47:29.114Z,100008.75
2022-10-24T00:50:04.358Z,99999.53
2022-10-24T00:52:38.249Z,99996.88
2022-10-24T00:55:07.430Z,99998.53
2022-10-24T00:57:38.760Z,100001.03
2022-10-24T01:00:09.541Z,99987.66
2022-10-24T01:02:37.968Z,99993.81
2022-10-24T01:05:09.313Z,99991.34
2022-10-24T01:07:47.225Z,99982.28
2022-10-24T01:10:30.847Z,99990.50
2022-10-24T01:13:10.383Z,99981.66
2022-10-24T01:15:48.534Z,99985.34
2022-10-24T01:18:24.295Z,99977.50
2022-10-24T01:21:08.312Z,99972.16
2022-10-24T01:24:12.667Z,99977.78
2022-10-24T01:27:27.445Z,99983.31
2022-10-24T01:30:04.076Z,99973.63
2022-10-24T01:32:37.827Z,99955.72
2022-10-24T01:35:13.333Z,99955.72
2022-10-24T01:37:46.535Z,99934.34
2022-10-24T01:40:21.131Z,99940.69
2022-10-24T01:42:52.987Z,99946.06
2022-10-24T01:45:23.982Z,99941.34
2022-10-24T01:47:55.967Z,99936.53
2022-10-24T01:50:25.924Z,99933.84
2022-10-24T01:52:56.183Z,99938.75
2022-10-24T01:55:24.333Z,99935.41
2022-10-24T01:57:51.862Z,99939.09
2022-10-24T02:00:23.786Z,99925.91
2022-10-24T02:02:56.243Z,99926.91
2022-10-24T02:05:26.709Z,99921.56
2022-10-24T02:07:57.219Z,99923.41
2022-10-24T02:10:30.271Z,99915.56
2022-10-24T02:13:01.716Z,99909.38
2022-10-24T02:15:34.366Z,99907.53
2022-10-24T02:18:03.014Z,99905.84
2022-10-24T02:20:36.332Z,99905.84
2022-10-24T02:23:11.399Z,99900.69
2022-10-24T02:25:47.247Z,99896.38
2022-10-24T02:28:19.814Z,99891.19
2022-10-24T02:30:54.885Z,99895.72
2022-10-24T02:33:23.321Z,99888.88
2022-10-24T02:35:52.555Z,99890.06
2022-10-24T02:38:26.716Z,99885.06
2022-10-24T02:40:56.671Z,99882.75
2022-10-24T02:43:24.330Z,99896.47
2022-10-24T02:45:57.264Z,99882.66
2022-10-24T02:48:29.877Z,99880.50
2022-10-24T02:50:57.493Z,99881.66
2022-10-24T02:53:26.371Z,99873.00
2022-10-24T02:55:54.064Z,99886.75
2022-10-24T02:58:21.885Z,99877.22
2022-10-24T03:00:49.484Z,99880.25
2022-10-24T03:03:18.566Z,99878.56
2022-10-24T03:05:46.122Z,99873.22
2022-10-24T03:08:13.890Z,99867.06
2022-10-24T03:10:41.645Z,99872.41
2022-10-24T03:13:09.181Z,99880.41
2022-10-24T03:15:36.799Z,99878.56
2022-10-24T03:18:04.404Z,99883.09
2022-10-24T03:20:33.331Z,99888.44
2022-10-24T03:23:00.922Z,99885.13
2022-10-24T03:25:28.574Z,99888.63
2022-10-24T03:27:56.271Z,99885.13
2022-10-24T03:30:24.153Z,99880.59
2022-10-24T03:32:51.783Z,99876.47
2022-10-24T03:35:19.535Z,99878.94
2022-10-24T03:37:48.418Z,99867.25
2022-10-24T03:40:15.955Z,99867.88
2022-10-24T03:42:44.015Z,99865.22
2022-10-24T03:45:12.044Z,99870.03
2022-10-24T03:47:39.702Z,99873.53
2022-10-24T03:50:08.923Z,99872.19
2022-10-24T03:52:36.508Z,99869.50
2022-10-24T03:55:06.022Z,99866.00
2022-10-24T03:57:33.579Z,99874.66
2022-10-24T04:00:01.137Z,99880.00
2022-10-24T04:02:28.665Z,99872.81
2022-10-24T04:04:56.185Z,99874.50
2022-10-24T04:07:24.434Z,99878.84
2022-10-24T04:09:52.000Z,99874.13
2022-10-24T04:12:20.877Z,99866.44
2022-10-24T04:14:48.446Z,99869.56
2022-10-24T04:17:16.258Z,99878.06
2022-10-24T04:19:43.925Z,99875.88
2022-10-24T04:22:11.544Z,99881.38
2022-10-24T04:24:39.395Z,99889.25
2022-10-24T04:27:07.305Z,99894.41
2022-10-24T04:29:36.570Z,99884.72
2022-10-24T04:32:04.729Z,99893.56
2022-10-24T04:34:35.759Z,99882.06
2022-10-24T04:37:03.490Z,99883.53
2022-10-24T04:39:31.093Z,99885.38
2022-10-24T04:41:58.633Z,99881.88
2022-10-24T04:44:26.476Z,99889.88
2022-10-24T04:46:55.332Z,99886.38
2022-10-24T04:49:23.024Z,99882.06
2022-10-24T04:51:50.609Z,99880.41
2022-10-24T04:54:18.211Z,99881.38
2022-10-24T04:56:45.712Z,99887.94
2022-10-24T04:59:13.255Z,99885.44
2022-10-24T05:01:40.911Z,99881.94
2022-10-24T05:04:10.135Z,99880.91
2022-10-24T05:06:39.286Z,99886.91
2022-10-24T05:09:09.079Z,99889.78
2022-10-24T05:11:36.598Z,99892.25
2022-10-24T05:14:04.237Z,99880.09
2022-10-24T05:16:32.016Z,99877.41
2022-10-24T05:18:59.585Z,99882.09
2022-10-24T05:21:28.802Z,99890.47
2022-10-24T05:23:56.366Z,99883.47
2022-10-24T05:26:23.942Z,99878.97
2022-10-24T05:28:52.631Z,99892.97
2022-10-24T05:31:20.589Z,99889.28
2022-10-24T05:33:48.423Z,99899.16
2022-10-24T05:36:16.056Z,99894.81
2022-10-24T05:38:45.072Z,99897.69
2022-10-24T05:41:12.750Z,99896.03
2022-10-24T05:43:40.262Z,99896.16
2022-10-24T05:46:10.033Z,99901.50
2022-10-24T05:48:37.530Z,99899.84
2022-10-24T05:51:05.725Z,99895.53
2022-10-24T05:53:33.305Z,99888.53
2022-10-24T05:56:02.547Z,99900.22
2022-10-24T05:58:30.082Z,99910.91
2022-10-24T06:00:57.642Z,99910.09
2022-10-24T06:03:25.382Z,99913.75
2022-10-24T06:05:53.047Z,99919.28
2022-10-24T06:08:20.578Z,99911.06
2022-10-24T06:10:49.079Z,99919.97
2022-10-24T06:13:18.365Z,99916.09
2022-10-24T06:15:46.324Z,99920.41
2022-10-24T06:18:13.945Z,99923.91
2022-10-24T06:20:41.501Z,99924.59
2022-10-24T06:23:09.197Z,99927.53
2022-10-24T06:25:36.787Z,99939.75
2022-10-24T06:28:04.378Z,99932.38
2022-10-24T06:30:33.313Z,99933.88
2022-10-24T06:33:01.705Z,99941.72
2022-10-24T06:35:29.287Z,99936.19
2022-10-24T06:37:56.878Z,99944.19
2022-10-24T06:40:24.474Z,99945.03
2022-10-24T06:42:51.978Z,99948.53
2022-10-24T06:45:21.666Z,99948.53
2022-10-24T06:47:53.487Z,99952.03
2022-10-24T06:50:22.313Z,99950.88
2022-10-24T06:52:49.993Z,99953.53
2022-10-24T06:55:17.764Z,99961.56
2022-10-24T06:57:45.524Z,99954.38
2022-10-24T07:00:14.576Z,99963.88
2022-10-24T07:02:42.416Z,99957.50
2022-10-24T07:05:12.791Z,99967.03
2022-10-24T07:07:42.209Z,99975.88
2022-10-24T07:10:12.615Z,99973.84
2022-10-24T07:12:40.358Z,99979.03
2022-10-24T07:15:08.565Z,99983.00
2022-10-24T07:17:40.363Z,99981.66
2022-10-24T07:20:08.710Z,99993.00
2022-10-24T07:22:37.917Z,99990.63
2022-10-24T07:25:06.976Z,99994.63
2022-10-24T07:27:35.034Z,99994.09
2022-10-24T07:30:05.589Z,99996.88
2022-10-24T07:32:34.069Z,99994.50
2022-10-24T07:35:01.675Z,100000.16
2022-10-24T07:37:29.167Z,99992.63
2022-10-24T07:39:58.110Z,99988.56
2022-10-24T07:42:25.673Z,99986.66
2022-10-24T07:44:53.257Z,99980.28
2022-10-24T07:47:20.950Z,99973.94
2022-10-24T07:49:48.995Z,99977.72
2022-10-24T07:52:16.559Z,99973.00
2022-10-24T07:54:44.331Z,99968.09
2022-10-24T07:57:13.255Z,99978.47
2022-10-24T07:59:42.764Z,99980.59
2022-10-24T08:02:12.774Z,99974.31
2022-10-24T08:04:40.334Z,99974.97
2022-10-24T08:07:13.504Z,99976.47
2022-10-24T08:09:43.226Z,99974.22
2022-10-24T08:12:11.107Z,99971.69
2022-10-24T08:14:40.916Z,99966.97
2022-10-24T08:17:08.887Z,99972.75
2022-10-24T08:19:43.686Z,99971.38
2022-10-24T08:22:12.524Z,99990.13
2022-10-24T08:24:40.037Z,99983.22
2022-10-24T08:27:07.614Z,99975.16
2022-10-24T08:29:35.235Z,99985.69
2022-10-24T08:32:04.704Z,99981.63
2022-10-24T08:34:32.247Z,99979.88
2022-10-24T08:37:00.007Z,99983.84
2022-10-24T08:39:27.800Z,99983.75
2022-10-24T08:41:59.445Z,99988.34
2022-10-24T08:44:31.584Z,99984.78
2022-10-24T08:47:03.933Z,99988.66
2022-10-24T08:49:40.151Z,99993.44
2022-10-24T08:52:18.107Z,99990.84
2022-10-24T08:54:47.486Z,99996.66
2022-10-24T08:57:21.806Z,99992.03
2022-10-24T08:59:50.481Z,99991.81
2022-10-24T09:02:23.365Z,100000.50
2022-10-24T09:04:57.487Z,100006.06
2022-10-24T09:10:05.790Z,99992.09
2022-10-24T09:12:35.023Z,100006.97
2022-10-24T09:15:02.815Z,100003.16
2022-10-24T09:17:32.386Z,100014.06
2022-10-24T09:20:11.873Z,100013.44
2022-10-24T09:22:43.474Z,100018.88
2022-10-24T09:25:16.600Z,100017.75
2022-10-24T09:27:45.493Z,100017.75
2022-10-24T09:30:19.133Z,100006.81
2022-10-24T09:32:47.530Z,100024.75
2022-10-24T09:35:20.568Z,100021.94
2022-10-24T09:37:50.688Z,100023.81
2022-10-24T09:40:22.197Z,100020.56
2022-10-24T09:42:57.846Z,100029.19
2022-10-24T09:45:40.858Z,100038.78
2022-10-24T09:48:26.103Z,100032.66
2022-10-24T09:50:59.270Z,100033.63
2022-10-24T09:53:28.750Z,100045.63
2022-10-24T09:56:00.306Z,100031.19
2022-10-24T09:58:33.648Z,100035.34
2022-10-24T10:01:05.331Z,100041.19
2022-10-24T10:03:34.322Z,100048.78
2022-10-24T10:06:06.119Z,100059.34
2022-10-24T10:08:36.383Z,100068.28
2022-10-24T10:11:07.242Z,100068.06
2022-10-24T10:13:40.869Z,100058.72
2022-10-24T10:16:12.709Z,100074.19
2022-10-24T10:18:46.450Z,100066.13
2022-10-24T10:21:17.138Z,100058.47
2022-10-24T10:23:46.721Z,100068.59
2022-10-24T10:26:23.908Z,100074.16
2022-10-24T10:29:03.527Z,100072.25
2022-10-24T10:31:41.100Z,100092.34
2022-10-24T10:34:22.541Z,100087.38
2022-10-24T10:37:03.045Z,100080.25
2022-10-24T10:39:58.131Z,100082.56
2022-10-24T10:42:35.063Z,100081.78
2022-10-24T10:45:16.084Z,100091.81
2022-10-24T10:47:56.087Z,100072.25
2022-10-24T10:50:29.712Z,100082.84
2022-10-24T10:53:06.216Z,100084.94
2022-10-24T10:55:42.610Z,100080.63
2022-10-24T10:58:25.913Z,100083.31
2022-10-24T11:01:01.486Z,100075.94
2022-10-24T11:03:38.311Z,100087.53
2022-10-24T11:06:20.098Z,100074.06
2022-10-24T11:09:09.500Z,100089.25
2022-10-24T11:11:42.496Z,100096.06
2022-10-24T11:14:23.402Z,100090.75
2022-10-24T11:16:54.649Z,100102.41
2022-10-24T11:19:27.020Z,100097.84
2022-10-24T11:21:58.282Z,100096.03
2022-10-24T11:24:28.349Z,100104.34
2022-10-24T11:27:03.351Z,100105.41
2022-10-24T11:29:37.450Z,100103.53
2022-10-24T11:32:11.881Z,100104.81
2022-10-24T11:34:45.934Z,100106.00
2022-10-24T11:37:18.790Z,100114.06
2022-10-24T11:39:55.753Z,100115.09
2022-10-24T11:42:30.960Z,100119.03
2022-10-24T11:45:05.572Z,100116.72
2022-10-24T11:47:44.240Z,100118.13
2022-10-24T11:50:23.180Z,100118.97
2022-10-24T11:52:58.053Z,100120.25
2022-10-24T11:55:31.434Z,100125.41
2022-10-24T11:58:00.707Z,100122.13
2022-10-24T12:00:32.028Z,100122.53
2022-10-24T12:03:22.354Z,100131.03
2022-10-24T12:06:23.705Z,100132.91
2022-10-24T12:09:24.209Z,100125.66
2022-10-24T12:12:04.057Z,100132.06
2022-10-24T12:14:51.547Z,100126.69
2022-10-24T12:17:35.665Z,100130.78
2022-10-24T12:20:06.514Z,100128.72
2022-10-24T12:22:38.743Z,100139.50
2022-10-24T12:25:09.651Z,100126.66
2022-10-24T12:27:41.433Z,100132.44
2022-10-24T12:30:18.395Z,100121.47
2022-10-24T12:32:48.306Z,100118.97
2022-10-24T12:35:52.836Z,100120.22
2022-10-24T12:39:05.735Z,100132.22
2022-10-24T12:41:41.831Z,100123.69
2022-10-24T12:44:51.571Z,100134.25
2022-10-24T12:47:35.247Z,100137.38
2022-10-24T12:50:36.157Z,100140.88
2022-10-24T12:53:07.039Z,100145.41
2022-10-24T12:56:06.490Z,100143.78
2022-10-24T12:58:36.770Z,100142.09
2022-10-24T13:01:07.403Z,100141.69
2022-10-24T13:03:56.150Z,100136.50
2022-10-24T13:06:28.663Z,100140.00
2022-10-24T13:09:12.465Z,100137.09
2022-10-24T13:11:58.251Z,100134.59
2022-10-24T13:14:55.422Z,100144.50
2022-10-24T13:17:33.237Z,100134.41
2022-10-24T13:20:16.057Z,100129.41
2022-10-24T13:22:45.538Z,100134.78
2022-10-24T13:25:22.338Z,100132.75
2022-10-24T13:28:23.776Z,100127.94
2022-10-24T13:31:12.343Z,100132.22
2022-10-24T13:33:44.223Z,100132.22
2022-10-24T13:36:18.179Z,100134.63
2022-10-24T13:38:50.478Z,100130.88
2022-10-24T13:41:26.531Z,100127.34
2022-10-24T13:43:57.753Z,100123.63
2022-10-24T13:46:31.093Z,100129.59
2022-10-24T13:49:01.317Z,100127.59
2022-10-24T13:51:41.648Z,100125.47
2022-10-24T13:54:15.122Z,100129.00
2022-10-24T13:56:45.455Z,100137.31
2022-10-24T13:59:29.836Z,100138.31
2022-10-24T14:01:59.711Z,100152.13
2022-10-24T14:04:28.991Z,100149.66
2022-10-24T14:07:04.388Z,100156.31
2022-10-24T14:09:41.011Z,100149.00
2022-10-24T14:12:09.365Z,100159.75
2022-10-24T14:14:41.015Z,100172.00
2022-10-24T14:17:22.982Z,100149.84
2022-10-24T14:19:55.505Z,100159.56
2022-10-24T14:22:27.861Z,100153.38
2022-10-24T14:24:56.308Z,100169.50
2022-10-24T14:27:24.347Z,100166.94
2022-10-24T14:29:58.723Z,100158.69
2022-10-24T14:32:27.685Z,100163.81
2022-10-24T14:34:57.381Z,100168.38
2022-10-24T14:37:32.971Z,100173.75
2022-10-24T14:40:01.412Z,100175.59
2022-10-24T14:42:29.948Z,100175.16
2022-10-24T14:44:58.598Z,100179.50
2022-10-24T14:47:29.738Z,100172.66
2022-10-24T14:50:00.666Z,100174.53
2022-10-24T14:52:36.388Z,100174.31
2022-10-24T14:55:06.540Z,100173.44
2022-10-24T14:57:37.599Z,100185.41
2022-10-24T15:00:08.375Z,100175.22
2022-10-24T15:02:42.929Z,100181.63
2022-10-24T15:05:33.757Z,100183.03
2022-10-24T15:08:25.508Z,100181.34
2022-10-24T15:11:15.622Z,100191.22
2022-10-24T15:14:05.163Z,100201.53
2022-10-24T15:16:37.504Z,100211.06
2022-10-24T15:19:07.110Z,100207.53
2022-10-24T15:21:38.292Z,100205.22
2022-10-24T15:24:08.379Z,100207.06
2022-10-24T15:26:39.484Z,100212.66
2022-10-24T15:29:18.311Z,100208.78
2022-10-24T15:31:48.026Z,100211.19
2022-10-24T15:34:17.259Z,100203.50
2022-10-24T15:36:46.833Z,100211.75
2022-10-24T15:39:18.717Z,100205.56
2022-10-24T15:41:46.098Z,100211.94
2022-10-24T15:44:18.454Z,100226.97
2022-10-24T15:46:46.311Z,100213.72
2022-10-24T15:49:14.713Z,100230.03
2022-10-24T15:51:48.975Z,100229.75
2022-10-24T15:54:21.312Z,100227.78
2022-10-24T15:56:49.364Z,100233.56
2022-10-24T15:59:17.926Z,100227.00
2022-10-24T16:01:49.313Z,100237.47
2022-10-24T16:04:19.110Z,100225.13
2022-10-24T16:06:46.601Z,100233.94
2022-10-24T16:09:17.103Z,100233.22
2022-10-24T16:11:46.275Z,100238.50
2022-10-24T16:14:15.485Z,100247.09
2022-10-24T16:16:43.515Z,100247.44
2022-10-24T16:19:11.320Z,100252.06
2022-10-24T16:21:40.768Z,100255.28
2022-10-24T16:24:09.145Z,100256.41
2022-10-24T16:26:37.193Z,100251.09
2022-10-24T16:29:06.569Z,100259.69
2022-10-24T16:31:34.387Z,100254.41
2022-10-24T16:34:02.230Z,100262.78
2022-10-24T16:36:29.924Z,100266.66
2022-10-24T16:38:57.445Z,100273.88
2022-10-24T16:41:26.961Z,100272.25
2022-10-24T16:43:55.810Z,100279.84
2022-10-24T16:46:26.907Z,100275.19
2022-10-24T16:48:54.929Z,100278.22
2022-10-24T16:51:25.586Z,100275.22
2022-10-24T16:53:53.131Z,100276.63
2022-10-24T16:56:20.795Z,100277.78
2022-10-24T16:58:48.465Z,100280.00
2022-10-24T17:01:16.845Z,100276.84
2022-10-24T17:03:46.222Z,100277.22
2022-10-24T17:06:15.018Z,100272.38
2022-10-24T17:08:42.617Z,100287.13
2022-10-24T17:11:32.272Z,100283.97
2022-10-24T17:13:58.864Z,100275.78
2022-10-24T17:16:26.701Z,100278.19
2022-10-24T17:19:12.438Z,100281.38
2022-10-24T17:21:43.435Z,100290.13
2022-10-24T17:24:12.656Z,100291.00
2022-10-24T17:26:40.554Z,100287.16
2022-10-24T17:29:09.091Z,100298.38
2022-10-24T17:31:37.035Z,100297.06
2022-10-24T17:34:06.765Z,100301.94
2022-10-24T17:36:38.376Z,100309.66
2022-10-24T17:39:10.569Z,100316.66
2022-10-24T17:41:40.663Z,100307.44
2022-10-24T17:44:13.537Z,100304.44
2022-10-24T17:46:41.362Z,100311.97
2022-10-24T17:49:11.207Z,100312.16
2022-10-24T17:51:40.961Z,100309.66
2022-10-24T17:54:09.167Z,100319.84
2022-10-24T17:56:36.907Z,100307.47
2022-10-24T17:59:04.471Z,100312.84
2022-10-24T18:01:32.112Z,100320.03
2022-10-24T18:03:59.835Z,100320.22
2022-10-24T18:06:29.220Z,100321.38
2022-10-24T18:08:57.098Z,100313.50
2022-10-24T18:11:24.770Z,100311.03
2022-10-24T18:13:52.333Z,100312.88
2022-10-24T18:16:20.931Z,100311.34
2022-10-24T18:18:48.998Z,100312.34
2022-10-24T18:21:24.278Z,100319.72
2022-10-24T18:23:53.881Z,100325.25
2022-10-24T18:26:23.419Z,100323.56
2022-10-24T18:28:52.786Z,100330.75
2022-10-24T18:31:22.052Z,100330.09
2022-10-24T18:33:50.484Z,100335.63
2022-10-24T18:36:20.410Z,100335.63
2022-10-24T18:38:48.175Z,100337.09
2022-10-24T18:41:31.606Z,100341.81
2022-10-24T18:44:01.709Z,100341.28
2022-10-24T18:46:30.376Z,100352.81
2022-10-24T18:48:58.298Z,100351.16
2022-10-24T18:51:32.685Z,100352.00
2022-10-24T18:54:06.052Z,100356.50
2022-10-24T18:56:36.857Z,100353.00
2022-10-24T18:59:10.535Z,100352.16
2022-10-24T19:01:43.730Z,100362.88
2022-10-24T19:04:19.722Z,100364.53
2022-10-24T19:06:48.788Z,100364.53
2022-10-24T19:09:20.004Z,100374.22
2022-10-24T19:11:49.392Z,100372.06
2022-10-24T19:14:17.655Z,100365.53
2022-10-24T19:16:46.503Z,100370.41
2022-10-24T19:19:17.977Z,100366.72
2022-10-24T19:21:47.701Z,100360.53
2022-10-24T19:24:17.434Z,100368.06
2022-10-24T19:26:45.062Z,100356.50
2022-10-24T19:29:13.935Z,100369.03
2022-10-24T19:31:41.483Z,100376.06
2022-10-24T19:34:10.015Z,100371.38
2022-10-24T19:36:39.072Z,100363.84
2022-10-24T19:39:07.310Z,100350.13
2022-10-24T19:41:35.470Z,100350.97
2022-10-24T19:44:03.136Z,100350.97
2022-10-24T19:46:32.157Z,100354.66
2022-10-24T19:48:59.686Z,100361.66
2022-10-24T19:51:27.263Z,100360.34
2022-10-24T19:53:56.906Z,100357.66
2022-10-24T19:56:28.521Z,100365.03
2022-10-24T19:58:56.718Z,100365.84
2022-10-24T20:01:26.089Z,100361.34
2022-10-24T20:03:55.942Z,100359.34
2022-10-24T20:06:25.527Z,100361.16
2022-10-24T20:08:53.357Z,100361.66
2022-10-24T20:11:21.237Z,100356.50
2022-10-24T20:13:50.205Z,100360.34
2022-10-24T20:16:18.189Z,100362.16
2022-10-24T20:18:45.973Z,100369.38
2022-10-24T20:21:17.655Z,100364.19
2022-10-24T20:23:46.875Z,100356.34
2022-10-24T20:26:16.248Z,100358.00
2022-10-24T20:28:46.503Z,100358.00
2022-10-24T20:31:22.353Z,100360.88
2022-10-24T20:33:50.206Z,100356.50
2022-10-24T20:36:20.614Z,100356.84
2022-10-24T20:38:48.330Z,100370.03
2022-10-24T20:41:15.990Z,100369.38
2022-10-24T20:43:43.590Z,100376.75
2022-10-24T20:46:11.250Z,100382.09
2022-10-24T20:48:38.926Z,100374.38
2022-10-24T20:51:08.828Z,100368.88
2022-10-24T20:53:38.393Z,100384.09
2022-10-24T20:56:08.177Z,100392.47
2022-10-24T20:58:38.556Z,100387.94
2022-10-24T21:01:08.022Z,100405.16
2022-10-24T21:03:36.937Z,100410.66
2022-10-24T21:06:05.962Z,100406.50
2022-10-24T21:08:34.098Z,100412.34
2022-10-24T21:11:07.714Z,100422.38
2022-10-24T21:13:35.990Z,100421.69
2022-10-24T21:16:03.969Z,100411.00
2022-10-24T21:18:31.574Z,100412.66
2022-10-24T21:20:59.061Z,100416.16
2022-10-24T21:23:26.680Z,100419.00
2022-10-24T21:26:02.217Z,100417.84
2022-10-24T21:28:31.147Z,100427.16
2022-10-24T21:30:58.701Z,100431.69
2022-10-24T21:33:26.681Z,100433.53
2022-10-24T21:35:54.183Z,100435.53
2022-10-24T21:38:21.839Z,100438.53
2022-10-24T21:40:49.330Z,100441.19
2022-10-24T21:43:16.991Z,100450.53
2022-10-24T21:45:45.838Z,100439.16
2022-10-24T21:48:15.810Z,100439.16
2022-10-24T21:53:12.259Z,100448.19
2022-10-24T21:55:39.823Z,100449.19
2022-10-24T21:58:07.374Z,100450.19
2022-10-24T22:00:36.897Z,100444.69
2022-10-24T22:03:09.113Z,100445.84
2022-10-24T22:05:36.651Z,100449.69
2022-10-24T22:08:04.265Z,100451.50
2022-10-24T22:10:31.974Z,100453.53
2022-10-24T22:12:59.730Z,100457.16
2022-10-24T22:15:27.229Z,100464.69
2022-10-24T22:17:54.863Z,100461.00
2022-10-24T22:20:23.738Z,100465.84
2022-10-24T22:22:52.808Z,100473.34
2022-10-24T22:25:20.438Z,100468.00
2022-10-24T22:27:48.415Z,100462.97
2022-10-24T22:30:16.235Z,100473.66
2022-10-24T22:32:44.509Z,100469.50
2022-10-24T22:35:13.388Z,100481.19
2022-10-24T22:37:42.958Z,100468.97
2022-10-24T22:40:26.250Z,100474.63
2022-10-24T22:42:54.947Z,100471.13
2022-10-24T22:45:23.164Z,100481.94
2022-10-24T22:48:05.899Z,100485.59
2022-10-24T22:50:52.945Z,100486.47
2022-10-24T22:53:23.997Z,100490.94
2022-10-24T22:56:13.312Z,100480.97
2022-10-24T22:58:43.235Z,100486.47
2022-10-24T23:01:23.380Z,100503.31
2022-10-24T23:04:02.830Z,100502.63
2022-10-24T23:06:38.650Z,100494.78
2022-10-24T23:09:07.769Z,100509.13
2022-10-24T23:11:36.079Z,100508.13
2022-10-24T23:14:04.320Z,100505.47
2022-10-24T23:16:38.243Z,100514.31
2022-10-24T23:19:14.413Z,100521.50
2022-10-24T23:21:49.737Z,100520.50
2022-10-24T23:24:20.362Z,100523.16
2022-10-24T23:27:11.189Z,100524.00
2022-10-24T23:29:41.675Z,100522.31
2022-10-24T23:32:17.123Z,100518.81
2022-10-24T23:34:45.169Z,100525.00
2022-10-24T23:37:22.427Z,100521.50
2022-10-24T23:39:51.941Z,100531.34
2022-10-24T23:42:19.955Z,100528.66
2022-10-24T23:44:48.234Z,100527.66
2022-10-24T23:47:24.791Z,100530.34
2022-10-24T23:49:59.197Z,100526.00
2022-10-24T23:52:31.927Z,100527.66
2022-10-24T23:55:01.535Z,100536.69
2022-10-24T23:57:29.587Z,100534.84
2022-10-24T23:59:57.203Z,100539.50
